createdAt,value
2019-03-01T00:01:33.884Z,10.08
2019-03-01T00:04:24.032Z,8.28
2019-03-01T00:08:20.121Z,4.70
2019-03-01T00:12:17.883Z,6.10
2019-03-01T00:15:40.931Z,4.00
2019-03-01T00:19:53.933Z,5.50
2019-03-01T00:23:24.334Z,5.55
2019-03-01T00:27:16.496Z,4.30
2019-03-01T00:31:06.849Z,4.95
2019-03-01T00:34:54.985Z,8.80
2019-03-01T00:38:41.335Z,3.67
2019-03-01T00:41:50.327Z,4.33
2019-03-01T00:44:48.652Z,6.22
2019-03-01T00:47:21.039Z,5.20
2019-03-01T00:49:53.109Z,7.15
2019-03-01T00:52:25.848Z,5.75
2019-03-01T00:54:57.912Z,6.00
2019-03-01T00:57:30.332Z,5.97
2019-03-01T01:00:02.880Z,8.20
2019-03-01T01:02:35.074Z,8.08
2019-03-01T01:05:08.808Z,4.40
2019-03-01T01:07:40.801Z,9.67
2019-03-01T01:10:12.880Z,7.17
2019-03-01T01:12:45.098Z,7.37
2019-03-01T01:15:17.296Z,8.90
2019-03-01T01:17:49.964Z,5.22
2019-03-01T01:20:22.388Z,7.85
2019-03-01T01:22:54.841Z,7.78
2019-03-01T01:25:26.896Z,7.62
2019-03-01T01:27:59.347Z,7.53
2019-03-01T01:30:32.600Z,7.05
2019-03-01T01:33:05.041Z,8.93
2019-03-01T01:35:37.392Z,7.80
2019-03-01T01:38:09.871Z,6.83
2019-03-01T01:40:41.875Z,7.75
2019-03-01T01:43:14.334Z,6.65
2019-03-01T01:45:46.955Z,8.05
2019-03-01T01:48:19.118Z,6.33
2019-03-01T01:50:51.881Z,10.23
2019-03-01T01:53:24.109Z,6.58
2019-03-01T01:55:56.903Z,8.03
2019-03-01T01:58:28.914Z,7.83
2019-03-01T02:01:02.008Z,7.60
2019-03-01T02:03:35.128Z,7.87
2019-03-01T02:06:07.485Z,6.92
2019-03-01T02:08:39.879Z,7.00
2019-03-01T02:11:11.976Z,7.72
2019-03-01T02:13:44.945Z,6.08
2019-03-01T02:16:18.347Z,7.60
2019-03-01T02:18:57.503Z,7.92
2019-03-01T02:21:25.356Z,5.03
2019-03-01T02:23:57.854Z,6.05
2019-03-01T02:26:30.130Z,5.25
2019-03-01T02:29:02.581Z,4.85
2019-03-01T02:31:34.878Z,3.58
2019-03-01T02:34:07.289Z,5.60
2019-03-01T02:36:39.941Z,5.37
2019-03-01T02:39:12.341Z,3.70
2019-03-01T02:41:44.942Z,4.75
2019-03-01T02:44:17.049Z,3.90
2019-03-01T02:46:49.374Z,5.50
2019-03-01T02:49:21.896Z,6.62
2019-03-01T02:51:54.851Z,3.47
2019-03-01T02:54:27.412Z,5.25
2019-03-01T02:56:59.936Z,3.80
2019-03-01T02:59:32.017Z,3.80
2019-03-01T03:02:04.117Z,5.92
2019-03-01T03:04:36.902Z,3.65
2019-03-01T03:07:30.546Z,3.40
2019-03-01T03:10:02.919Z,3.10
2019-03-01T03:12:35.316Z,3.37
2019-03-01T03:15:08.473Z,4.12
2019-03-01T03:17:40.859Z,3.72
2019-03-01T03:20:12.934Z,3.30
2019-03-01T03:22:45.083Z,4.20
2019-03-01T03:25:18.342Z,3.50
2019-03-01T03:27:51.337Z,3.27
2019-03-01T03:30:24.082Z,3.40
2019-03-01T03:32:56.886Z,3.45
2019-03-01T03:35:28.906Z,3.37
2019-03-01T03:38:01.376Z,4.10
2019-03-01T03:40:34.331Z,3.17
2019-03-01T03:43:07.183Z,3.42
2019-03-01T03:45:39.882Z,3.27
2019-03-01T03:48:12.022Z,3.62
2019-03-01T03:50:43.920Z,3.40
2019-03-01T03:53:15.934Z,3.83
2019-03-01T03:55:48.349Z,4.28
2019-03-01T03:58:20.876Z,3.22
2019-03-01T04:00:53.342Z,3.02
2019-03-01T04:03:25.984Z,3.10
2019-03-01T04:05:58.352Z,3.33
2019-03-01T04:08:30.903Z,3.50
2019-03-01T04:11:03.081Z,3.27
2019-03-01T04:13:35.879Z,3.10
2019-03-01T04:16:08.632Z,3.33
2019-03-01T04:18:40.881Z,3.50
2019-03-01T04:21:13.098Z,3.10
2019-03-01T04:23:45.493Z,3.45
2019-03-01T04:26:17.898Z,3.72
2019-03-01T04:28:50.331Z,3.17
2019-03-01T04:31:22.847Z,3.60
2019-03-01T04:33:55.838Z,3.20
2019-03-01T04:36:27.788Z,3.10
2019-03-01T04:38:59.850Z,3.30
2019-03-01T04:41:31.857Z,3.30
2019-03-01T04:44:05.338Z,3.40
2019-03-01T04:46:38.332Z,3.35
2019-03-01T04:49:11.101Z,3.25
2019-03-01T04:51:43.868Z,3.02
2019-03-01T04:54:17.006Z,3.12
2019-03-01T04:56:49.379Z,3.50
2019-03-01T04:59:21.400Z,3.70
2019-03-01T05:01:53.856Z,3.87
2019-03-01T05:04:26.099Z,3.00
2019-03-01T05:06:58.692Z,2.90
2019-03-01T05:09:30.909Z,3.70
2019-03-01T05:12:03.395Z,3.58
2019-03-01T05:14:35.951Z,3.30
2019-03-01T05:17:08.356Z,3.40
2019-03-01T05:19:40.865Z,3.22
2019-03-01T05:22:13.493Z,3.80
2019-03-01T05:24:45.892Z,3.10
2019-03-01T05:27:17.888Z,3.35
2019-03-01T05:29:50.796Z,3.30
2019-03-01T05:32:22.869Z,3.67
2019-03-01T05:34:55.336Z,3.50
2019-03-01T05:37:28.842Z,3.95
2019-03-01T05:40:01.314Z,4.20
2019-03-01T05:42:33.884Z,3.90
2019-03-01T05:45:07.468Z,3.10
2019-03-01T05:47:39.876Z,3.22
2019-03-01T05:50:13.891Z,3.37
2019-03-01T05:52:46.343Z,3.20
2019-03-01T05:55:19.347Z,3.30
2019-03-01T05:58:50.320Z,3.05
2019-03-01T06:02:24.395Z,3.52
2019-03-01T06:05:13.554Z,3.62
2019-03-01T06:08:43.829Z,3.05
2019-03-01T06:12:50.848Z,2.83
2019-03-01T06:16:14.472Z,3.00
2019-03-01T06:19:53.307Z,3.52
2019-03-01T06:23:46.324Z,2.75
2019-03-01T06:27:08.518Z,2.92
2019-03-01T06:30:51.608Z,2.92
2019-03-01T06:35:16.878Z,2.70
2019-03-01T06:39:15.173Z,3.10
2019-03-01T06:43:07.291Z,3.20
2019-03-01T06:46:42.105Z,3.33
2019-03-01T06:49:29.347Z,3.20
2019-03-01T06:52:01.908Z,4.55
2019-03-01T06:54:34.128Z,3.20
2019-03-01T06:57:06.893Z,3.27
2019-03-01T06:59:39.024Z,3.85
2019-03-01T07:02:12.856Z,4.22
2019-03-01T07:04:45.038Z,3.55
2019-03-01T07:07:17.330Z,3.45
2019-03-01T07:09:49.830Z,3.55
2019-03-01T07:12:22.001Z,3.58
2019-03-01T07:14:54.338Z,3.52
2019-03-01T07:17:26.929Z,2.77
2019-03-01T07:19:59.844Z,3.22
2019-03-01T07:22:32.005Z,3.35
2019-03-01T07:25:04.324Z,3.12
2019-03-01T07:27:36.907Z,3.15
2019-03-01T07:30:09.387Z,3.08
2019-03-01T07:32:41.897Z,2.52
2019-03-01T07:35:14.035Z,2.98
2019-03-01T07:37:46.343Z,2.58
2019-03-01T07:40:18.895Z,3.00
2019-03-01T07:42:51.004Z,3.37
2019-03-01T07:45:23.319Z,3.00
2019-03-01T07:47:55.897Z,3.20
2019-03-01T07:50:27.883Z,3.30
2019-03-01T07:53:00.218Z,3.87
2019-03-01T07:58:04.904Z,3.02
2019-03-01T08:00:37.309Z,2.92
2019-03-01T08:03:11.796Z,2.80
2019-03-01T08:05:45.892Z,3.15
2019-03-01T08:08:18.365Z,3.50
2019-03-01T08:10:53.587Z,3.15
2019-03-01T08:13:26.784Z,3.58
2019-03-01T08:15:59.419Z,3.90
2019-03-01T08:18:32.338Z,3.02
2019-03-01T08:21:06.436Z,2.87
2019-03-01T08:23:38.919Z,2.80
2019-03-01T08:26:10.845Z,3.02
2019-03-01T08:28:43.333Z,3.40
2019-03-01T08:31:17.534Z,3.37
2019-03-01T08:33:49.866Z,3.30
2019-03-01T08:36:22.396Z,3.60
2019-03-01T08:38:54.871Z,2.90
2019-03-01T08:41:26.859Z,2.67
2019-03-01T08:43:58.900Z,2.75
2019-03-01T08:46:30.864Z,2.40
2019-03-01T08:49:03.094Z,3.30
2019-03-01T08:51:35.315Z,2.75
2019-03-01T08:54:07.879Z,2.70
2019-03-01T08:56:39.977Z,2.62
2019-03-01T08:59:14.108Z,2.60
2019-03-01T09:01:46.868Z,3.10
2019-03-01T09:04:21.429Z,2.52
2019-03-01T09:06:52.870Z,2.47
2019-03-01T09:09:24.998Z,2.70
2019-03-01T09:11:57.781Z,2.60
2019-03-01T09:14:29.893Z,2.77
2019-03-01T09:17:01.832Z,2.58
2019-03-01T09:19:33.885Z,2.60
2019-03-01T09:22:06.381Z,2.75
2019-03-01T09:24:38.927Z,2.47
2019-03-01T09:27:11.275Z,2.40
2019-03-01T09:29:43.884Z,2.92
2019-03-01T09:32:15.966Z,2.60
2019-03-01T09:34:50.686Z,2.33
2019-03-01T09:37:22.820Z,2.40
2019-03-01T09:40:05.035Z,2.60
2019-03-01T09:42:29.872Z,2.40
2019-03-01T09:45:01.998Z,2.40
2019-03-01T09:47:36.930Z,3.25
2019-03-01T09:50:09.903Z,3.22
2019-03-01T09:52:42.320Z,2.80
2019-03-01T09:55:14.869Z,2.80
2019-03-01T09:57:47.091Z,3.17
2019-03-01T10:00:22.325Z,2.80
2019-03-01T10:02:55.057Z,2.70
2019-03-01T10:05:27.893Z,2.60
2019-03-01T10:08:00.349Z,2.65
2019-03-01T10:10:33.102Z,3.60
2019-03-01T10:13:05.966Z,3.45
2019-03-01T10:15:38.070Z,2.90
2019-03-01T10:18:10.432Z,3.40
2019-03-01T10:20:42.905Z,2.10
2019-03-01T10:23:15.330Z,3.00
2019-03-01T10:25:48.062Z,2.95
2019-03-01T10:28:20.389Z,3.42
2019-03-01T10:30:53.338Z,3.08
2019-03-01T10:33:25.823Z,2.50
2019-03-01T10:35:58.050Z,3.10
2019-03-01T10:38:30.327Z,2.92
2019-03-01T10:41:02.922Z,2.12
2019-03-01T10:43:41.626Z,2.98
2019-03-01T10:46:24.331Z,2.37
2019-03-01T10:48:56.833Z,2.60
2019-03-01T10:51:29.012Z,2.37
2019-03-01T10:54:01.288Z,2.33
2019-03-01T10:56:33.652Z,3.08
2019-03-01T10:59:06.007Z,2.37
2019-03-01T11:01:38.321Z,2.40
2019-03-01T11:04:11.288Z,2.22
2019-03-01T11:06:44.323Z,3.00
2019-03-01T11:09:16.900Z,2.67
2019-03-01T11:11:53.023Z,2.77
2019-03-01T11:14:25.285Z,2.60
2019-03-01T11:16:57.872Z,2.70
2019-03-01T11:19:29.851Z,2.42
2019-03-01T11:22:01.842Z,3.00
2019-03-01T11:24:34.871Z,3.20
2019-03-01T11:27:12.791Z,3.10
2019-03-01T11:29:40.866Z,2.85
2019-03-01T11:32:13.331Z,2.80
2019-03-01T11:34:45.898Z,2.30
2019-03-01T11:37:18.080Z,2.85
2019-03-01T11:39:51.075Z,2.90
2019-03-01T11:42:23.365Z,2.98
2019-03-01T11:44:55.918Z,2.40
2019-03-01T11:47:27.875Z,2.65
2019-03-01T11:50:00.167Z,2.20
2019-03-01T11:52:32.877Z,2.67
2019-03-01T11:55:06.040Z,3.20
2019-03-01T11:57:38.317Z,2.87
2019-03-01T12:00:14.325Z,2.45
2019-03-01T12:02:46.856Z,2.55
2019-03-01T12:05:19.317Z,3.05
2019-03-01T12:07:51.909Z,2.70
2019-03-01T12:10:26.337Z,2.70
2019-03-01T12:12:59.027Z,2.87
2019-03-01T12:15:31.519Z,3.02
2019-03-01T12:18:04.101Z,2.75
2019-03-01T12:20:36.400Z,2.60
2019-03-01T12:23:09.326Z,2.58
2019-03-01T12:25:41.878Z,2.83
2019-03-01T12:28:13.878Z,3.42
2019-03-01T12:30:46.112Z,2.72
2019-03-01T12:33:18.326Z,2.33
2019-03-01T12:35:50.869Z,2.90
2019-03-01T12:38:23.074Z,2.35
2019-03-01T12:40:55.544Z,2.37
2019-03-01T12:43:28.347Z,2.40
2019-03-01T12:46:00.906Z,2.50
2019-03-01T12:48:32.844Z,3.12
2019-03-01T12:51:05.589Z,2.90
2019-03-01T12:53:37.289Z,2.80
2019-03-01T12:56:09.887Z,2.90
2019-03-01T12:58:42.329Z,3.05
2019-03-01T13:01:19.009Z,2.35
2019-03-01T13:03:51.333Z,2.60
2019-03-01T13:06:24.394Z,3.00
2019-03-01T13:08:56.872Z,2.80
2019-03-01T13:11:29.031Z,2.27
2019-03-01T13:14:01.433Z,2.52
2019-03-01T13:16:34.039Z,2.27
2019-03-01T13:19:06.334Z,2.10
2019-03-01T13:21:38.866Z,2.50
2019-03-01T13:24:12.676Z,2.58
2019-03-01T13:26:44.900Z,2.65
2019-03-01T13:29:19.063Z,2.52
2019-03-01T13:31:52.321Z,2.30
2019-03-01T13:34:26.722Z,3.02
2019-03-01T13:36:58.909Z,3.58
2019-03-01T13:39:31.109Z,3.20
2019-03-01T13:42:03.423Z,3.05
2019-03-01T13:44:36.085Z,3.00
2019-03-01T13:47:09.796Z,2.60
2019-03-01T13:49:42.324Z,4.05
2019-03-01T13:52:14.976Z,6.17
2019-03-01T13:54:47.290Z,6.80
2019-03-01T13:57:19.873Z,7.15
2019-03-01T13:59:52.322Z,5.85
2019-03-01T14:02:24.969Z,9.05
2019-03-01T14:04:57.063Z,7.03
2019-03-01T14:07:29.331Z,6.22
2019-03-01T14:10:04.882Z,5.00
2019-03-01T14:12:37.265Z,5.00
2019-03-01T14:17:44.804Z,8.05
2019-03-01T14:20:21.035Z,5.47
2019-03-01T14:22:53.874Z,7.00
2019-03-01T14:25:26.812Z,5.58
2019-03-01T14:28:01.982Z,4.17
2019-03-01T14:30:33.463Z,8.43
2019-03-01T14:33:05.887Z,5.53
2019-03-01T14:35:38.039Z,8.08
2019-03-01T14:38:10.489Z,9.50
2019-03-01T14:40:43.015Z,8.65
2019-03-01T14:43:15.628Z,4.58
2019-03-01T14:45:48.031Z,9.63
2019-03-01T14:48:20.410Z,6.72
2019-03-01T14:50:52.898Z,7.12
2019-03-01T14:53:25.317Z,7.28
2019-03-01T14:56:08.483Z,6.00
2019-03-01T14:58:59.884Z,11.05
2019-03-01T15:02:08.886Z,14.10
2019-03-01T15:04:41.046Z,17.17
2019-03-01T15:07:13.509Z,16.17
2019-03-01T15:09:45.897Z,19.80
2019-03-01T15:12:21.040Z,17.62
2019-03-01T15:14:52.495Z,17.92
2019-03-01T15:17:24.891Z,19.42
2019-03-01T15:19:57.105Z,21.65
2019-03-01T15:22:29.993Z,22.67
2019-03-01T15:25:02.877Z,18.35
2019-03-01T15:27:39.722Z,23.77
2019-03-01T15:30:13.958Z,23.62
2019-03-01T15:32:46.097Z,24.20
2019-03-01T15:35:18.528Z,24.60
2019-03-01T15:37:50.865Z,22.55
2019-03-01T15:40:22.862Z,25.57
2019-03-01T15:42:55.583Z,25.62
2019-03-01T15:45:28.075Z,25.23
2019-03-01T15:48:02.077Z,24.32
2019-03-01T15:50:34.848Z,24.80
2019-03-01T15:53:07.327Z,26.65
2019-03-01T15:55:39.879Z,18.30
2019-03-01T15:58:11.910Z,27.98
2019-03-01T16:00:44.320Z,27.00
2019-03-01T16:03:16.996Z,28.77
2019-03-01T16:05:49.275Z,26.05
2019-03-01T16:08:21.918Z,27.85
2019-03-01T16:10:53.974Z,27.95
2019-03-01T16:13:26.323Z,25.57
2019-03-01T16:15:59.756Z,24.70
2019-03-01T16:21:08.893Z,22.15
2019-03-01T16:23:41.334Z,22.10
2019-03-01T16:26:13.874Z,15.20
2019-03-01T16:28:46.867Z,15.03
2019-03-01T16:31:18.874Z,12.13
2019-03-01T16:33:55.758Z,16.50
2019-03-01T16:39:04.872Z,9.90
2019-03-01T16:41:39.688Z,8.43
2019-03-01T16:44:11.628Z,14.13
2019-03-01T16:46:43.870Z,16.55
2019-03-01T16:49:17.901Z,13.58
2019-03-01T16:51:50.684Z,13.40
2019-03-01T16:54:25.358Z,13.60
2019-03-01T16:56:58.315Z,9.43
2019-03-01T16:59:31.031Z,14.75
2019-03-01T17:02:06.614Z,12.78
2019-03-01T17:04:38.711Z,9.43
2019-03-01T17:09:43.392Z,11.63
2019-03-01T17:12:16.684Z,11.80
2019-03-01T17:14:50.031Z,12.25
2019-03-01T17:17:23.414Z,11.63
2019-03-01T17:19:58.729Z,10.90
2019-03-01T17:22:30.448Z,10.60
2019-03-01T17:25:02.882Z,8.93
2019-03-01T17:27:36.681Z,7.20
2019-03-01T17:30:14.220Z,9.55
2019-03-01T17:32:46.086Z,8.35
2019-03-01T17:35:19.032Z,8.63
2019-03-01T17:37:51.917Z,10.93
2019-03-01T17:40:24.349Z,11.63
2019-03-01T17:42:58.088Z,11.15
2019-03-01T17:45:31.379Z,10.25
2019-03-01T17:48:04.015Z,11.38
2019-03-01T17:50:36.394Z,8.85
2019-03-01T17:53:28.459Z,10.43
2019-03-01T17:56:01.393Z,11.00
2019-03-01T17:58:34.009Z,10.63
2019-03-01T18:01:07.328Z,9.43
2019-03-01T18:03:39.964Z,8.05
2019-03-01T18:06:16.754Z,10.50
2019-03-01T18:08:49.458Z,8.90
2019-03-01T18:11:23.809Z,11.00
2019-03-01T18:13:56.927Z,8.15
2019-03-01T18:16:30.825Z,8.65
2019-03-01T18:19:04.027Z,10.15
2019-03-01T18:21:36.395Z,9.93
2019-03-01T18:24:10.999Z,9.88
2019-03-01T18:26:42.887Z,9.30
2019-03-01T18:29:15.128Z,9.65
2019-03-01T18:31:47.389Z,8.48
2019-03-01T18:34:20.481Z,9.78
2019-03-01T18:36:52.903Z,9.73
2019-03-01T18:39:25.479Z,8.70
2019-03-01T18:41:59.286Z,8.83
2019-03-01T18:44:32.892Z,13.13
2019-03-01T18:47:05.012Z,11.53
2019-03-01T18:49:37.634Z,10.63
2019-03-01T18:52:14.483Z,11.33
2019-03-01T18:54:44.065Z,11.90
2019-03-01T18:57:17.124Z,10.10
2019-03-01T18:59:49.897Z,11.30
2019-03-01T19:02:24.342Z,10.95
2019-03-01T19:04:56.878Z,10.78
2019-03-01T19:07:29.005Z,9.13
2019-03-01T19:10:01.321Z,7.58
2019-03-01T19:12:33.803Z,7.85
2019-03-01T19:15:06.321Z,6.97
2019-03-01T19:17:40.723Z,8.55
2019-03-01T19:20:18.376Z,8.10
2019-03-01T19:22:50.956Z,8.20
2019-03-01T19:25:25.474Z,6.10
2019-03-01T19:27:57.316Z,6.72
2019-03-01T19:30:29.879Z,4.50
2019-03-01T19:33:02.245Z,6.17
2019-03-01T19:35:35.883Z,6.10
2019-03-01T19:38:08.325Z,5.70
2019-03-01T19:40:43.528Z,5.60
2019-03-01T19:43:14.878Z,5.08
2019-03-01T19:45:47.356Z,5.30
2019-03-01T19:48:20.009Z,6.05
2019-03-01T19:50:52.306Z,6.20
2019-03-01T19:53:25.501Z,6.25
2019-03-01T19:55:59.015Z,5.45
2019-03-01T19:58:31.316Z,6.03
2019-03-01T20:01:03.848Z,5.83
2019-03-01T20:03:37.823Z,5.62
2019-03-01T20:06:09.913Z,4.42
2019-03-01T20:08:42.276Z,5.70
2019-03-01T20:11:15.049Z,5.42
2019-03-01T20:13:47.326Z,4.67
2019-03-01T20:16:22.586Z,5.30
2019-03-01T20:18:53.803Z,5.70
2019-03-01T20:21:25.917Z,4.70
2019-03-01T20:24:01.745Z,5.40
2019-03-01T20:26:32.972Z,4.45
2019-03-01T20:29:05.050Z,5.50
2019-03-01T20:31:40.534Z,5.20
2019-03-01T20:34:11.310Z,5.47
2019-03-01T20:36:43.872Z,5.20
2019-03-01T20:39:16.518Z,7.08
2019-03-01T20:41:49.023Z,6.87
2019-03-01T20:44:21.850Z,5.53
2019-03-01T20:46:54.085Z,5.80
2019-03-01T20:49:26.878Z,5.40
2019-03-01T20:52:02.294Z,4.30
2019-03-01T20:54:33.865Z,5.28
2019-03-01T20:57:06.341Z,4.85
2019-03-01T20:59:39.137Z,5.08
2019-03-01T21:02:13.156Z,4.35
2019-03-01T21:07:18.876Z,5.60
2019-03-01T21:09:51.982Z,5.12
2019-03-01T21:12:24.327Z,5.72
2019-03-01T21:14:58.684Z,4.58
2019-03-01T21:17:31.933Z,5.80
2019-03-01T21:20:05.333Z,5.87
2019-03-01T21:22:40.784Z,5.40
2019-03-01T21:25:19.548Z,5.05
2019-03-01T21:27:51.769Z,5.40
2019-03-01T21:30:29.088Z,5.60
2019-03-01T21:33:01.894Z,5.25
2019-03-01T21:35:34.396Z,5.65
2019-03-01T21:38:06.884Z,5.50
2019-03-01T21:40:39.521Z,5.92
2019-03-01T21:43:12.315Z,5.05
2019-03-01T21:45:44.880Z,5.83
2019-03-01T21:48:18.590Z,5.22
2019-03-01T21:50:51.317Z,5.20
2019-03-01T21:53:25.335Z,4.83
2019-03-01T21:56:00.677Z,5.00
2019-03-01T21:58:31.800Z,4.35
2019-03-01T22:01:05.886Z,4.83
2019-03-01T22:03:40.573Z,5.03
2019-03-01T22:06:13.079Z,5.12
2019-03-01T22:08:48.776Z,5.10
2019-03-01T22:11:21.028Z,5.90
2019-03-01T22:13:54.332Z,5.05
2019-03-01T22:16:26.624Z,5.67
2019-03-01T22:18:59.891Z,4.33
2019-03-01T22:21:31.950Z,4.83
2019-03-01T22:24:04.852Z,5.33
2019-03-01T22:26:37.338Z,4.90
2019-03-01T22:29:12.342Z,4.22
2019-03-01T22:31:46.048Z,5.40
2019-03-01T22:34:18.315Z,5.00
2019-03-01T22:36:52.874Z,4.40
2019-03-01T22:39:25.291Z,4.80
2019-03-01T22:41:58.034Z,4.00
2019-03-01T22:44:33.331Z,4.60
2019-03-01T22:47:07.008Z,4.30
2019-03-01T22:49:39.916Z,4.55
2019-03-01T22:52:12.045Z,4.45
2019-03-01T22:54:44.392Z,4.17
2019-03-01T22:57:19.170Z,4.75
2019-03-01T22:59:51.028Z,4.22
2019-03-01T23:02:26.332Z,4.20
2019-03-01T23:05:00.522Z,4.40
2019-03-01T23:07:32.869Z,4.30
2019-03-01T23:10:05.446Z,5.40
2019-03-01T23:12:40.585Z,4.72
2019-03-01T23:15:12.743Z,4.33
2019-03-01T23:17:45.332Z,5.47
2019-03-01T23:20:18.332Z,4.22
2019-03-01T23:22:50.870Z,4.33
2019-03-01T23:25:23.337Z,4.22
2019-03-01T23:27:55.898Z,4.42
2019-03-01T23:30:29.055Z,6.08
2019-03-01T23:33:01.902Z,4.33
2019-03-01T23:35:33.870Z,5.95
2019-03-01T23:38:06.012Z,4.22
2019-03-01T23:40:38.871Z,4.83
2019-03-01T23:43:11.103Z,4.95
2019-03-01T23:45:43.884Z,4.78
2019-03-01T23:48:15.927Z,5.03
2019-03-01T23:50:48.582Z,4.20
2019-03-01T23:53:21.127Z,3.90
2019-03-01T23:58:39.998Z,4.60
